Time;durP1;ratioP1;P1;durP2;ratioP2;P2;SDS_P1;SDS_P2;PMS_P1;PMS_P2;Temp;Humidity;BMP_temperature;BMP_pressure;BME280_temperature;BME280_humidity;BME280_pressure;Samples;Min_cycle;Max_cycle;Signal;HPM_P1;HPM_P2
2023/07/15 00:02:12;;;;;;;7.30;5.10;;;;;;;15.73;66.47;99539.69;437299;1252;139519;-66
2023/07/15 00:12:18;;;;;;;6.80;4.50;;;;;;;15.60;67.37;99537.83;437116;1252;140317;-65
2023/07/15 00:22:24;;;;;;;8.30;5.00;;;;;;;15.45;67.55;99533.60;436941;1248;139909;-68
2023/07/15 00:32:29;;;;;;;7.80;4.60;;;;;;;15.35;67.66;99528.84;436754;1251;140451;-65
2023/07/15 00:42:50;;;;;;;7.90;5.10;;;;;;;15.28;67.81;99516.91;436494;1253;140863;-64
2023/07/15 00:52:56;;;;;;;6.30;4.40;;;;;;;15.23;67.53;99500.41;437270;1253;140224;-66
2023/07/15 01:03:03;;;;;;;7.40;4.50;;;;;;;15.35;66.60;99500.97;437086;1252;139391;-66
2023/07/15 01:13:12;;;;;;;6.30;5.00;;;;;;;15.37;67.82;99498.30;438176;1248;139601;-66
2023/07/15 01:23:18;;;;;;;6.00;4.50;;;;;;;15.31;68.14;99492.30;437773;1248;139364;-65
2023/07/15 01:33:24;;;;;;;5.70;4.00;;;;;;;15.21;67.88;99481.48;437124;1248;139279;-65
2023/07/15 01:43:30;;;;;;;5.70;4.00;;;;;;;15.22;67.14;99472.05;437245;1252;140111;-65
2023/07/15 01:53:36;;;;;;;5.80;3.70;;;;;;;15.29;66.46;99473.04;437707;1253;139827;-64
2023/07/15 02:03:41;;;;;;;7.30;3.60;;;;;;;15.41;66.19;99473.30;437513;1248;139049;-65
2023/07/15 02:13:50;;;;;;;6.00;4.10;;;;;;;15.77;65.31;99466.17;437033;1250;140517;-66
2023/07/15 02:23:59;;;;;;;8.40;3.80;;;;;;;16.13;64.18;99459.86;436958;1248;139954;-63
2023/07/15 02:34:05;;;;;;;5.10;3.70;;;;;;;16.24;63.45;99454.27;437681;1251;139079;-65
2023/07/15 02:44:12;;;;;;;3.70;3.30;;;;;;;16.32;62.90;99455.17;436942;1252;139661;-66
2023/07/15 02:54:18;;;;;;;7.40;3.80;;;;;;;16.39;62.49;99449.34;437292;1248;141066;-65
2023/07/15 03:04:24;;;;;;;5.70;3.70;;;;;;;16.57;62.01;99449.16;437173;1248;140275;-65
2023/07/15 03:14:30;;;;;;;4.10;3.70;;;;;;;16.99;61.48;99457.02;437259;1248;140207;-65
2023/07/15 03:24:37;;;;;;;5.20;3.80;;;;;;;18.23;59.83;99456.15;436967;1250;140124;-64
2023/07/15 03:34:45;;;;;;;9.80;4.20;;;;;;;18.07;58.58;99454.52;437535;1248;139586;-66
2023/07/15 03:44:53;;;;;;;4.60;3.60;;;;;;;17.96;58.43;99451.23;437851;1248;138401;-65
2023/07/15 03:55:00;;;;;;;8.50;4.20;;;;;;;18.37;57.95;99447.48;437324;1251;140811;-64
2023/07/15 04:05:07;;;;;;;4.90;3.10;;;;;;;18.86;56.91;99442.30;437330;1248;138374;-65
2023/07/15 04:15:13;;;;;;;6.30;4.10;;;;;;;20.57;55.72;99430.70;437195;1252;138843;-65
2023/07/15 04:25:19;;;;;;;3.90;3.00;;;;;;;24.53;50.73;99426.73;436894;1248;138833;-64
2023/07/15 04:35:25;;;;;;;2.60;2.40;;;;;;;28.33;44.79;99431.74;437145;1248;138334;-64
2023/07/15 04:45:32;;;;;;;4.50;2.80;;;;;;;28.45;40.93;99439.17;437003;1248;138388;-66
2023/07/15 04:55:39;;;;;;;4.40;2.70;;;;;;;25.33;41.88;99445.40;436999;1248;138757;-65
2023/07/15 05:05:47;;;;;;;8.50;2.50;;;;;;;24.78;43.20;99439.52;437199;1248;138613;-65
2023/07/15 05:15:53;;;;;;;4.10;2.80;;;;;;;28.11;41.81;99429.23;437696;1251;138110;-65
2023/07/15 05:25:59;;;;;;;3.00;2.60;;;;;;;33.56;36.46;99419.25;436825;1252;138682;-65
2023/07/15 05:36:07;;;;;;;3.00;2.70;;;;;;;38.10;31.31;99408.96;437100;1252;139922;-64
2023/07/15 05:46:12;;;;;;;5.80;3.50;;;;;;;40.61;27.88;99404.14;437188;1252;138827;-64
2023/07/15 05:56:18;;;;;;;3.10;2.90;;;;;;;40.87;26.02;99406.70;436994;1252;139095;-66
2023/07/15 06:06:24;;;;;;;4.60;3.10;;;;;;;41.32;25.31;99408.66;437286;1248;138635;-65
2023/07/15 06:16:30;;;;;;;4.60;2.90;;;;;;;42.54;24.23;99407.08;436912;1253;138717;-65
2023/07/15 06:26:36;;;;;;;2.50;2.30;;;;;;;45.14;22.45;99407.34;436696;1251;139101;-65
2023/07/15 06:36:42;;;;;;;4.20;2.30;;;;;;;46.68;21.27;99404.75;436974;1251;140227;-65
2023/07/15 06:46:48;;;;;;;3.70;2.10;;;;;;;48.98;19.49;99400.05;437204;1253;137948;-66
2023/07/15 06:56:55;;;;;;;3.10;2.90;;;;;;;49.17;18.51;99405.92;437237;1251;139123;-65
2023/07/15 07:07:01;;;;;;;3.90;2.30;;;;;;;47.01;19.09;99399.10;437103;1251;138219;-65
2023/07/15 07:17:07;;;;;;;2.50;2.30;;;;;;;50.99;17.61;99395.34;437176;1248;138643;-65
2023/07/15 07:27:12;;;;;;;3.60;3.30;;;;;;;54.49;15.92;99395.53;436929;1252;138030;-64
2023/07/15 07:37:18;;;;;;;4.60;4.30;;;;;;;56.78;14.74;99389.34;437171;1253;138848;-64
2023/07/15 07:47:25;;;;;;;5.30;5.00;;;;;;;57.91;13.64;99379.89;437257;1253;138429;-65
2023/07/15 07:57:31;;;;;;;3.00;2.70;;;;;;;58.36;13.19;99373.54;438072;1252;139477;-65
2023/07/15 08:07:36;;;;;;;4.20;2.60;;;;;;;55.02;13.45;99371.20;436858;1253;139813;-64
2023/07/15 08:17:42;;;;;;;2.80;2.00;;;;;;;47.01;16.56;99354.51;437096;1252;139140;-64
2023/07/15 08:27:48;;;;;;;4.00;2.20;;;;;;;42.55;19.61;99350.05;437181;1251;139106;-64
2023/07/15 08:37:54;;;;;;;4.10;1.50;;;;;;;40.57;21.33;99352.27;436978;1251;139073;-65
2023/07/15 08:48:01;;;;;;;4.10;1.90;;;;;;;39.01;22.38;99350.94;437212;1249;138969;-67
2023/07/15 08:58:08;;;;;;;4.60;2.40;;;;;;;37.86;23.78;99347.89;437596;1253;138853;-66
2023/07/15 09:08:15;;;;;;;2.40;1.50;;;;;;;37.21;23.98;99346.73;437132;1252;141059;-67
2023/07/15 09:18:22;;;;;;;1.70;1.60;;;;;;;36.08;24.57;99347.27;437260;1248;140425;-66
2023/07/15 09:28:28;;;;;;;5.00;2.50;;;;;;;34.93;25.17;99345.31;437313;1251;138498;-68
2023/07/15 09:38:36;;;;;;;3.30;1.60;;;;;;;34.36;26.10;99336.73;437180;1253;139010;-67
2023/07/15 09:48:42;;;;;;;4.20;1.70;;;;;;;34.03;26.80;99329.96;437114;1253;138223;-68
2023/07/15 09:58:50;;;;;;;;;;;;;;;34.01;26.75;99330.92;437213;1252;137991;-67
2023/07/15 10:08:57;;;;;;;2.10;1.70;;;;;;;33.65;26.79;99328.59;436817;1253;125184;-69
2023/07/15 10:19:27;;;;;;;3.50;1.70;;;;;;;33.36;27.22;99316.59;436702;1251;138230;-68
2023/07/15 10:29:33;;;;;;;9.60;4.70;;;;;;;33.05;27.30;99307.33;438383;1253;137960;-71
2023/07/15 10:39:40;;;;;;;6.70;4.70;;;;;;;32.77;27.86;99308.89;436831;1248;141066;-69
2023/07/15 10:49:47;;;;;;;3.20;1.70;;;;;;;32.21;28.32;99307.67;437305;1252;139660;-72
2023/07/15 10:59:57;;;;;;;3.80;2.00;;;;;;;31.45;28.68;99305.77;437108;1252;139121;-70
2023/07/15 11:10:03;;;;;;;2.10;1.90;;;;;;;31.12;28.60;99296.60;437094;1253;139065;-72
2023/07/15 11:20:14;;;;;;;2.20;1.70;;;;;;;30.77;28.72;99289.84;437252;1252;138242;-70
2023/07/15 11:30:20;;;;;;;3.10;2.40;;;;;;;30.47;28.59;99279.17;436920;1253;138237;-72
2023/07/15 11:40:26;;;;;;;2.50;1.80;;;;;;;30.43;29.18;99271.28;437328;1253;137923;-71
2023/07/15 11:50:37;;;;;;;2.20;2.00;;;;;;;30.45;29.49;99264.49;437177;1253;138746;-65
2023/07/15 12:00:44;;;;;;;2.50;1.80;;;;;;;30.57;29.51;99260.20;437915;1253;139425;-67
2023/07/15 12:10:54;;;;;;;3.00;1.70;;;;;;;30.53;29.56;99255.40;437700;1253;139810;-66
2023/07/15 12:21:00;;;;;;;3.90;2.10;;;;;;;30.48;29.40;99248.16;437184;1254;138469;-66
2023/07/15 12:31:06;;;;;;;3.30;1.70;;;;;;;30.63;29.50;99245.34;437418;1251;138193;-74
2023/07/15 12:41:13;;;;;;;4.50;1.80;;;;;;;30.71;29.61;99237.20;439189;1253;138203;-67
2023/07/15 12:51:18;;;;;;;2.20;2.10;;;;;;;30.83;29.51;99231.21;437489;1251;140772;-64
2023/07/15 13:01:24;;;;;;;2.90;2.00;;;;;;;31.06;29.51;99223.23;437184;1253;138263;-64
2023/07/15 13:11:30;;;;;;;3.60;2.50;;;;;;;31.16;29.86;99215.40;437225;1251;138999;-61
2023/07/15 13:21:36;;;;;;;2.30;2.10;;;;;;;31.03;30.12;99209.73;437648;1253;137987;-65
2023/07/15 13:43:04;;;;;;;1.90;1.80;;;;;;;30.84;30.45;99206.86;440239;1247;139462;-69
2023/07/15 13:53:10;;;;;;;4.30;1.90;;;;;;;30.73;30.34;99199.11;437395;1256;138820;-64
2023/07/15 14:03:16;;;;;;;3.20;2.40;;;;;;;30.83;30.55;99198.70;435867;1253;138254;-67
2023/07/15 14:13:22;;;;;;;2.10;2.00;;;;;;;30.93;30.49;99197.48;435599;1253;139200;-67
2023/07/15 14:23:28;;;;;;;3.60;2.50;;;;;;;30.95;30.55;99185.48;435500;1254;138842;-68
2023/07/15 14:33:33;;;;;;;2.70;1.80;;;;;;;30.90;30.51;99183.98;435627;1253;139459;-66
2023/07/15 14:43:39;;;;;;;4.10;2.40;;;;;;;30.83;30.34;99184.50;435720;1256;138125;-66
2023/07/15 14:53:45;;;;;;;2.20;2.10;;;;;;;30.75;30.79;99176.70;435763;1253;138898;-64
2023/07/15 15:03:51;;;;;;;2.00;1.90;;;;;;;30.78;31.01;99170.75;435741;1256;138744;-66
2023/07/15 15:13:56;;;;;;;2.20;2.00;;;;;;;30.68;31.06;99164.12;436005;1253;138490;-66
2023/07/15 15:24:04;;;;;;;3.30;1.60;;;;;;;30.62;31.19;99152.70;435822;1253;138431;-65
2023/07/15 15:34:10;;;;;;;2.90;2.00;;;;;;;30.60;31.42;99138.27;436498;1256;138494;-64
2023/07/15 15:44:16;;;;;;;2.30;2.20;;;;;;;30.56;31.62;99134.55;435769;1254;140261;-65
2023/07/15 15:54:21;;;;;;;2.40;2.30;;;;;;;30.51;31.36;99129.26;437869;1256;139110;-67
2023/07/15 16:04:27;;;;;;;2.40;1.80;;;;;;;30.53;31.39;99134.77;436139;1254;137939;-64
2023/07/15 16:14:33;;;;;;;6.30;2.50;;;;;;;30.50;31.47;99134.44;435438;1254;139865;-62
2023/07/15 16:24:39;;;;;;;2.20;2.10;;;;;;;30.42;31.49;99130.65;435461;1256;138503;-62
2023/07/15 16:34:49;;;;;;;4.50;2.00;;;;;;;30.35;31.58;99133.67;435624;1256;139946;-66
2023/07/15 16:44:54;;;;;;;3.50;1.90;;;;;;;30.28;31.36;99126.48;435551;1256;138590;-67
2023/07/15 16:55:00;;;;;;;3.20;2.80;;;;;;;30.19;30.96;99123.32;435513;1255;138555;-65
2023/07/15 17:05:08;;;;;;;3.30;2.20;;;;;;;30.11;30.83;99123.64;435940;1252;140801;-62
2023/07/15 17:15:13;;;;;;;2.60;2.40;;;;;;;29.97;31.25;99130.81;437442;1256;138532;-70
2023/07/15 17:25:19;;;;;;;5.20;3.90;;;;;;;29.79;31.56;99134.30;438814;1256;138566;-69
2023/07/15 17:35:25;;;;;;;4.70;2.50;;;;;;;29.55;32.18;99129.12;439165;1253;139025;-71
2023/07/15 17:45:31;;;;;;;3.10;2.20;;;;;;;29.26;33.09;99125.75;434715;1256;138995;-70
2023/07/15 17:55:36;;;;;;;6.00;2.90;;;;;;;28.96;33.97;99125.09;436175;1256;138960;-71
2023/07/15 18:05:42;;;;;;;3.70;2.40;;;;;;;28.70;34.49;99124.77;436421;1256;139717;-66
2023/07/15 18:15:49;;;;;;;2.80;2.50;;;;;;;28.55;35.16;99121.86;435755;1254;138846;-65
2023/07/15 18:25:55;;;;;;;3.20;2.90;;;;;;;28.25;35.85;99126.33;436235;1257;138472;-66
2023/07/15 18:36:01;;;;;;;3.10;2.80;;;;;;;27.89;36.78;99135.52;436304;1255;138321;-67
2023/07/15 18:46:07;;;;;;;3.70;3.10;;;;;;;27.50;37.43;99149.68;436134;1254;139478;-65
2023/07/15 18:56:12;;;;;;;2.80;2.60;;;;;;;27.08;38.25;99155.59;435810;1255;140933;-66
2023/07/15 19:06:18;;;;;;;3.60;3.30;;;;;;;26.72;39.04;99161.98;435773;1256;138495;-65
2023/07/15 19:16:25;;;;;;;3.50;3.20;;;;;;;26.46;39.51;99167.69;436032;1257;138734;-66
2023/07/15 19:26:31;;;;;;;5.00;3.50;;;;;;;26.17;39.94;99169.52;436662;1256;138478;-65
2023/07/15 19:36:37;;;;;;;5.00;3.10;;;;;;;25.89;40.72;99174.48;436869;1256;149667;-64
2023/07/15 19:46:43;;;;;;;4.00;3.60;;;;;;;25.64;41.60;99178.73;436354;1256;138786;-69
2023/07/15 19:56:50;;;;;;;7.10;4.20;;;;;;;25.39;42.34;99177.20;437685;1256;138994;-71
2023/07/15 20:06:56;;;;;;;3.40;2.90;;;;;;;25.14;43.08;99177.13;437459;1256;139315;-70
2023/07/15 20:17:02;;;;;;;6.20;3.20;;;;;;;24.87;43.86;99172.67;436390;1257;138241;-72
2023/07/15 20:27:09;;;;;;;5.40;4.20;;;;;;;24.62;44.63;99178.08;435821;1256;140354;-74
2023/07/15 20:37:15;;;;;;;7.60;6.40;;;;;;;24.37;45.51;99179.70;437040;1254;139064;-67
2023/07/15 20:47:20;;;;;;;6.30;4.00;;;;;;;24.16;46.28;99176.86;436257;1254;137989;-67
2023/07/15 20:57:26;;;;;;;4.40;4.00;;;;;;;24.01;46.76;99173.60;435550;1254;139721;-65
2023/07/15 21:07:32;;;;;;;4.70;4.30;;;;;;;23.86;47.43;99169.88;436969;1253;138700;-65
2023/07/15 21:17:38;;;;;;;4.70;3.90;;;;;;;23.70;47.92;99169.85;435888;1256;137959;-64
2023/07/15 21:27:43;;;;;;;5.20;4.60;;;;;;;23.52;48.45;99167.16;435325;1256;138672;-64
2023/07/15 21:37:49;;;;;;;5.60;4.30;;;;;;;23.32;48.84;99168.30;435471;1256;138014;-64
2023/07/15 21:47:55;;;;;;;4.50;3.50;;;;;;;23.12;49.45;99174.55;435530;1256;138578;-63
2023/07/15 21:58:01;;;;;;;5.70;5.20;;;;;;;22.93;50.07;99181.65;435831;1254;138341;-64
2023/07/15 22:08:07;;;;;;;5.60;5.00;;;;;;;22.79;50.56;99179.84;435813;1254;138246;-67
2023/07/15 22:18:16;;;;;;;5.20;4.70;;;;;;;22.62;51.12;99189.69;435876;1256;138081;-64
2023/07/15 22:28:42;;;;;;;4.90;4.40;;;;;;;22.46;51.84;99192.92;436079;1254;138625;-63
2023/07/15 22:38:47;;;;;;;5.10;4.30;;;;;;;22.30;52.43;99191.91;436250;1256;138832;-64
2023/07/15 22:48:53;;;;;;;4.50;4.10;;;;;;;22.14;53.00;99193.44;435893;1254;138853;-64
2023/07/15 22:58:59;;;;;;;5.20;4.30;;;;;;;21.95;53.82;99187.65;435597;1254;139815;-63
2023/07/15 23:09:05;;;;;;;10.20;5.10;;;;;;;21.76;54.45;99188.30;435811;1252;138827;-66
2023/07/15 23:19:12;;;;;;;6.20;4.50;;;;;;;21.60;55.14;99185.64;435682;1256;138253;-65
2023/07/15 23:29:17;;;;;;;5.50;5.00;;;;;;;21.49;55.82;99182.85;435743;1256;138270;-65
2023/07/15 23:39:23;;;;;;;5.20;4.70;;;;;;;21.38;56.32;99180.17;435897;1253;139637;-64
2023/07/15 23:49:29;;;;;;;4.50;4.10;;;;;;;21.26;56.98;99168.35;435832;1256;138158;-65
2023/07/15 23:59:37;;;;;;;5.00;4.50;;;;;;;21.16;57.61;99164.39;436877;1256;138618;-65
